Main page
METAR-TAF:

METAR-TAF

Airports :

Bonriki International Airport

Tarawa, Kiribati

latitude: 01-21N, longitude: 172-55E, elevation: 2 m

Current weather observation

The report was made 40 minutes ago, at 05:00 UTC
Wind 12 kt from the West/Southwest
Temperature 32°C
Humidity 71%
Pressure 1007 hPa
Visibility 10 km or more
Scattered clouds at a height of 1900 ft

METAR: NGTA 240500Z 25012KT 9999 SCT019 32/26 Q1007

Time: 19:40 (05:40 UTC)

Forecast

The report was made 14 minutes ago, at 05:26 UTC
Forecast valid from 24 at 06 UTC to 25 at 06 UTC
Wind 10 kt from the West
Visibility 10 km or more
Scattered clouds at a height of 2000 ft

TAF: NGTA 240526Z 2406/2506 26010KT 9999 SCT020

Weather observations and forecasts of more than 4000 airports (METAR and TAF reports).

The available stations are represented by yellow and red dots on the map.

Hover mouse over dot to see the name of the station.

Then click to see weather observations and forecasts.

To change the map : click on the green buttons with a black cross to zoom in, on the green button with a dash to zoom out, or on the green arrows for adjacent maps.


METAR-TAF: